sensor_id;sensor_type;location;lat;lon;timestamp;pressure;altitude;pressure_sealevel;temperature;humidity
71772;BME280;59606;52.138;5.424;2023-02-02T00:01:58;102225.56;;;7.02;100.00
71772;BME280;59606;52.138;5.424;2023-02-02T00:04:29;102222.13;;;7.00;100.00
71772;BME280;59606;52.138;5.424;2023-02-02T00:06:57;102227.31;;;7.00;100.00
71772;BME280;59606;52.138;5.424;2023-02-02T00:09:27;102228.22;;;6.99;100.00
71772;BME280;59606;52.138;5.424;2023-02-02T00:11:55;102223.91;;;6.98;100.00
71772;BME280;59606;52.138;5.424;2023-02-02T00:14:21;102229.09;;;6.98;100.00
71772;BME280;59606;52.138;5.424;2023-02-02T00:16:50;102226.50;;;6.98;100.00
71772;BME280;59606;52.138;5.424;2023-02-02T00:19:19;102219.63;;;6.96;100.00
71772;BME280;59606;52.138;5.424;2023-02-02T00:21:46;102223.13;;;6.95;100.00
71772;BME280;59606;52.138;5.424;2023-02-02T00:24:15;102225.72;;;6.93;100.00
71772;BME280;59606;52.138;5.424;2023-02-02T00:26:46;102223.19;;;6.90;100.00
71772;BME280;59606;52.138;5.424;2023-02-02T00:29:16;102231.88;;;6.88;100.00
71772;BME280;59606;52.138;5.424;2023-02-02T00:31:43;102226.72;;;6.86;100.00
71772;BME280;59606;52.138;5.424;2023-02-02T00:34:14;102218.94;;;6.86;100.00
71772;BME280;59606;52.138;5.424;2023-02-02T00:36:42;102225.00;;;6.85;100.00
71772;BME280;59606;52.138;5.424;2023-02-02T00:39:09;102225.00;;;6.85;100.00
71772;BME280;59606;52.138;5.424;2023-02-02T00:41:37;102219.81;;;6.85;100.00
71772;BME280;59606;52.138;5.424;2023-02-02T00:44:03;102227.59;;;6.85;100.00
71772;BME280;59606;52.138;5.424;2023-02-02T00:46:48;102222.41;;;6.85;100.00
71772;BME280;59606;52.138;5.424;2023-02-02T00:49:15;102222.41;;;6.85;100.00
71772;BME280;59606;52.138;5.424;2023-02-02T00:51:41;102226.69;;;6.88;100.00
71772;BME280;59606;52.138;5.424;2023-02-02T00:54:08;102216.34;;;6.86;100.00
71772;BME280;59606;52.138;5.424;2023-02-02T00:56:34;102222.38;;;6.87;100.00
71772;BME280;59606;52.138;5.424;2023-02-02T00:59:01;102232.72;;;6.88;100.00
71772;BME280;59606;52.138;5.424;2023-02-02T01:01:27;102224.97;;;6.87;100.00
71772;BME280;59606;52.138;5.424;2023-02-02T01:03:54;102232.75;;;6.87;100.00
71772;BME280;59606;52.138;5.424;2023-02-02T01:06:20;102233.59;;;6.87;100.00
71772;BME280;59606;52.138;5.424;2023-02-02T01:08:47;102238.78;;;6.87;100.00
71772;BME280;59606;52.138;5.424;2023-02-02T01:11:14;102237.97;;;6.85;100.00
71772;BME280;59606;52.138;5.424;2023-02-02T01:13:41;102232.78;;;6.85;100.00
71772;BME280;59606;52.138;5.424;2023-02-02T01:16:09;102231.03;;;6.84;100.00
71772;BME280;59606;52.138;5.424;2023-02-02T01:18:36;102238.00;;;6.82;100.00
71772;BME280;59606;52.138;5.424;2023-02-02T01:21:05;102238.06;;;6.79;100.00
71772;BME280;59606;52.138;5.424;2023-02-02T01:23:33;102244.94;;;6.80;100.00
71772;BME280;59606;52.138;5.424;2023-02-02T01:26:01;102243.28;;;6.76;100.00
71772;BME280;59606;52.138;5.424;2023-02-02T01:28:28;102242.44;;;6.74;100.00
71772;BME280;59606;52.138;5.424;2023-02-02T01:30:56;102251.09;;;6.73;100.00
71772;BME280;59606;52.138;5.424;2023-02-02T01:33:23;102246.81;;;6.70;100.00
71772;BME280;59606;52.138;5.424;2023-02-02T01:35:54;102243.41;;;6.68;100.00
71772;BME280;59606;52.138;5.424;2023-02-02T01:38:22;102246.84;;;6.67;100.00
71772;BME280;59606;52.138;5.424;2023-02-02T01:40:50;102242.56;;;6.66;100.00
71772;BME280;59606;52.138;5.424;2023-02-02T01:43:27;102249.50;;;6.66;100.00
71772;BME280;59606;52.138;5.424;2023-02-02T01:45:56;102252.97;;;6.63;100.00
71772;BME280;59606;52.138;5.424;2023-02-02T01:48:26;102253.88;;;6.62;100.00
71772;BME280;59606;52.138;5.424;2023-02-02T01:51:00;102253.00;;;6.61;100.00
71772;BME280;59606;52.138;5.424;2023-02-02T01:53:28;102257.34;;;6.59;100.00
71772;BME280;59606;52.138;5.424;2023-02-02T01:55:55;102253.03;;;6.60;100.00
71772;BME280;59606;52.138;5.424;2023-02-02T01:58:26;102258.19;;;6.60;100.00
71772;BME280;59606;52.138;5.424;2023-02-02T02:00:54;102253.06;;;6.58;100.00
71772;BME280;59606;52.138;5.424;2023-02-02T02:03:24;102253.06;;;6.58;100.00
71772;BME280;59606;52.138;5.424;2023-02-02T02:05:55;102253.06;;;6.58;100.00
71772;BME280;59606;52.138;5.424;2023-02-02T02:08:28;102247.88;;;6.57;100.00
71772;BME280;59606;52.138;5.424;2023-02-02T02:10:56;102254.00;;;6.54;100.00
71772;BME280;59606;52.138;5.424;2023-02-02T02:13:25;102253.13;;;6.54;100.00
71772;BME280;59606;52.138;5.424;2023-02-02T02:16:19;102246.22;;;6.54;100.00
71772;BME280;59606;52.138;5.424;2023-02-02T02:22:01;102244.50;;;6.53;100.00
71772;BME280;59606;52.138;5.424;2023-02-02T02:25:09;102241.91;;;6.55;100.00
71772;BME280;59606;52.138;5.424;2023-02-02T02:28:19;102234.13;;;6.55;100.00
71772;BME280;59606;52.138;5.424;2023-02-02T02:31:14;102234.13;;;6.55;100.00
71772;BME280;59606;52.138;5.424;2023-02-02T02:34:20;102228.09;;;6.53;100.00
71772;BME280;59606;52.138;5.424;2023-02-02T02:36:58;102228.16;;;6.51;100.00
71772;BME280;59606;52.138;5.424;2023-02-02T02:39:42;102229.00;;;6.50;100.00
71772;BME280;59606;52.138;5.424;2023-02-02T02:42:17;102224.72;;;6.49;100.00
71772;BME280;59606;52.138;5.424;2023-02-02T02:44:47;102228.19;;;6.48;100.00
71772;BME280;59606;52.138;5.424;2023-02-02T02:47:16;102220.44;;;6.48;100.00
71772;BME280;59606;52.138;5.424;2023-02-02T02:49:45;102215.25;;;6.48;100.00
71772;BME280;59606;52.138;5.424;2023-02-02T02:52:12;102210.97;;;6.47;100.00
71772;BME280;59606;52.138;5.424;2023-02-02T02:54:50;102212.66;;;6.47;100.00
71772;BME280;59606;52.138;5.424;2023-02-02T02:57:48;102211.81;;;6.48;100.00
71772;BME280;59606;52.138;5.424;2023-02-02T03:03:26;102206.59;;;6.49;100.00
71772;BME280;59606;52.138;5.424;2023-02-02T03:09:07;102209.97;;;6.54;100.00
71772;BME280;59606;52.138;5.424;2023-02-02T03:11:24;102215.97;;;6.56;100.00
71772;BME280;59606;52.138;5.424;2023-02-02T03:13:51;102223.72;;;6.56;100.00
71772;BME280;59606;52.138;5.424;2023-02-02T03:16:18;102232.31;;;6.60;100.00
71772;BME280;59606;52.138;5.424;2023-02-02T03:18:44;102232.25;;;6.63;100.00
71772;BME280;59606;52.138;5.424;2023-02-02T03:21:11;102227.09;;;6.63;100.00
71772;BME280;59606;52.138;5.424;2023-02-02T03:23:38;102235.66;;;6.68;100.00
71772;BME280;59606;52.138;5.424;2023-02-02T03:26:04;102239.94;;;6.69;100.00
71772;BME280;59606;52.138;5.424;2023-02-02T03:28:31;102245.09;;;6.71;100.00
71772;BME280;59606;52.138;5.424;2023-02-02T03:30:59;102242.47;;;6.72;100.00
71772;BME280;59606;52.138;5.424;2023-02-02T03:33:27;102249.34;;;6.73;100.00
71772;BME280;59606;52.138;5.424;2023-02-02T03:35:53;102246.72;;;6.78;100.00
71772;BME280;59606;52.138;5.424;2023-02-02T03:38:20;102255.34;;;6.78;100.00
71772;BME280;59606;52.138;5.424;2023-02-02T03:40:46;102242.38;;;6.78;100.00
71772;BME280;59606;52.138;5.424;2023-02-02T03:43:19;102244.09;;;6.79;100.00
71772;BME280;59606;52.138;5.424;2023-02-02T03:45:45;102241.50;;;6.79;100.00
71772;BME280;59606;52.138;5.424;2023-02-02T03:48:12;102234.56;;;6.80;100.00
71772;BME280;59606;52.138;5.424;2023-02-02T03:50:38;102241.50;;;6.79;100.00
71772;BME280;59606;52.138;5.424;2023-02-02T03:53:04;102229.41;;;6.80;100.00
71772;BME280;59606;52.138;5.424;2023-02-02T03:55:31;102242.34;;;6.81;100.00
71772;BME280;59606;52.138;5.424;2023-02-02T03:57:57;102236.25;;;6.82;100.00
71772;BME280;59606;52.138;5.424;2023-02-02T04:00:26;102230.28;;;6.79;100.00
71772;BME280;59606;52.138;5.424;2023-02-02T04:02:53;102236.22;;;6.84;100.00
71772;BME280;59606;52.138;5.424;2023-02-02T04:05:20;102222.44;;;6.83;100.00
71772;BME280;59606;52.138;5.424;2023-02-02T04:07:46;102223.31;;;6.82;100.00
71772;BME280;59606;52.138;5.424;2023-02-02T04:10:14;102228.47;;;6.84;100.00
71772;BME280;59606;52.138;5.424;2023-02-02T04:12:41;102221.56;;;6.84;100.00
71772;BME280;59606;52.138;5.424;2023-02-02T04:15:08;102225.88;;;6.84;100.00
71772;BME280;59606;52.138;5.424;2023-02-02T04:17:34;102235.31;;;6.87;100.00
71772;BME280;59606;52.138;5.424;2023-02-02T04:20:02;102231.00;;;6.89;100.00
71772;BME280;59606;52.138;5.424;2023-02-02T04:22:29;102222.31;;;6.91;100.00
71772;BME280;59606;52.138;5.424;2023-02-02T04:24:55;102216.19;;;6.94;100.00
71772;BME280;59606;52.138;5.424;2023-02-02T04:27:22;102212.81;;;6.92;100.00
71772;BME280;59606;52.138;5.424;2023-02-02T04:29:48;102203.25;;;6.95;100.00
71772;BME280;59606;52.138;5.424;2023-02-02T04:32:16;102222.25;;;6.94;100.00
71772;BME280;59606;52.138;5.424;2023-02-02T04:34:43;102226.56;;;6.95;100.00
71772;BME280;59606;52.138;5.424;2023-02-02T04:37:10;102236.03;;;6.98;100.00
71772;BME280;59606;52.138;5.424;2023-02-02T04:39:37;102257.56;;;7.00;100.00
71772;BME280;59606;52.138;5.424;2023-02-02T04:42:04;102232.53;;;6.99;100.00
71772;BME280;59606;52.138;5.424;2023-02-02T04:44:30;102243.75;;;6.99;100.00
71772;BME280;59606;52.138;5.424;2023-02-02T04:46:57;102242.84;;;7.00;100.00
71772;BME280;59606;52.138;5.424;2023-02-02T04:49:23;102242.84;;;7.02;100.00
71772;BME280;59606;52.138;5.424;2023-02-02T04:51:49;102244.50;;;7.06;100.00
71772;BME280;59606;52.138;5.424;2023-02-02T04:54:16;102259.16;;;7.08;100.00
71772;BME280;59606;52.138;5.424;2023-02-02T04:56:42;102254.81;;;7.09;100.00
71772;BME280;59606;52.138;5.424;2023-02-02T04:59:09;102244.44;;;7.09;99.91
71772;BME280;59606;52.138;5.424;2023-02-02T05:01:35;102252.19;;;7.11;100.00
71772;BME280;59606;52.138;5.424;2023-02-02T05:04:02;102253.03;;;7.13;100.00
71772;BME280;59606;52.138;5.424;2023-02-02T05:06:28;102252.13;;;7.14;100.00
71772;BME280;59606;52.138;5.424;2023-02-02T05:08:55;102253.88;;;7.15;99.92
71772;BME280;59606;52.138;5.424;2023-02-02T05:11:22;102252.13;;;7.15;100.00
71772;BME280;59606;52.138;5.424;2023-02-02T05:13:51;102258.16;;;7.16;99.83
71772;BME280;59606;52.138;5.424;2023-02-02T05:16:19;102256.41;;;7.16;99.79
71772;BME280;59606;52.138;5.424;2023-02-02T05:18:52;102266.78;;;7.18;100.00
71772;BME280;59606;52.138;5.424;2023-02-02T05:21:20;102254.66;;;7.17;99.90
71772;BME280;59606;52.138;5.424;2023-02-02T05:23:46;102254.66;;;7.18;99.78
71772;BME280;59606;52.138;5.424;2023-02-02T05:26:16;102252.06;;;7.18;99.99
71772;BME280;59606;52.138;5.424;2023-02-02T05:28:44;102247.75;;;7.17;99.96
71772;BME280;59606;52.138;5.424;2023-02-02T05:31:10;102260.75;;;7.14;100.00
71772;BME280;59606;52.138;5.424;2023-02-02T05:33:37;102258.22;;;7.13;100.00
71772;BME280;59606;52.138;5.424;2023-02-02T05:36:04;102268.56;;;7.13;100.00
71772;BME280;59606;52.138;5.424;2023-02-02T05:38:31;102254.72;;;7.14;100.00
71772;BME280;59606;52.138;5.424;2023-02-02T05:40:59;102260.75;;;7.14;100.00
71772;BME280;59606;52.138;5.424;2023-02-02T05:43:26;102258.22;;;7.13;100.00
71772;BME280;59606;52.138;5.424;2023-02-02T05:45:53;102253.03;;;7.13;100.00
71772;BME280;59606;52.138;5.424;2023-02-02T05:48:20;102250.44;;;7.13;100.00
71772;BME280;59606;52.138;5.424;2023-02-02T05:50:56;102248.72;;;7.12;100.00
71772;BME280;59606;52.138;5.424;2023-02-02T05:53:24;102265.97;;;7.13;100.00
71772;BME280;59606;52.138;5.424;2023-02-02T05:55:51;102259.91;;;7.15;100.00
71772;BME280;59606;52.138;5.424;2023-02-02T05:58:17;102265.88;;;7.17;100.00
71772;BME280;59606;52.138;5.424;2023-02-02T06:00:43;102279.78;;;7.15;100.00
71772;BME280;59606;52.138;5.424;2023-02-02T06:03:10;102271.13;;;7.14;100.00
71772;BME280;59606;52.138;5.424;2023-02-02T06:05:38;102272.91;;;7.12;100.00
71772;BME280;59606;52.138;5.424;2023-02-02T06:08:05;102273.78;;;7.11;100.00
71772;BME280;59606;52.138;5.424;2023-02-02T06:10:31;102274.66;;;7.12;100.00
71772;BME280;59606;52.138;5.424;2023-02-02T06:12:58;102273.81;;;7.09;100.00
71772;BME280;59606;52.138;5.424;2023-02-02T06:15:24;102276.44;;;7.08;100.00
71772;BME280;59606;52.138;5.424;2023-02-02T06:17:53;102272.09;;;7.08;100.00
71772;BME280;59606;52.138;5.424;2023-02-02T06:20:19;102273.84;;;7.08;100.00
71772;BME280;59606;52.138;5.424;2023-02-02T06:22:47;102279.03;;;7.06;100.00
71772;BME280;59606;52.138;5.424;2023-02-02T06:25:14;102278.22;;;7.04;100.00
71772;BME280;59606;52.138;5.424;2023-02-02T06:27:41;102291.19;;;7.04;100.00
71772;BME280;59606;52.138;5.424;2023-02-02T06:30:08;102280.81;;;7.04;100.00
71772;BME280;59606;52.138;5.424;2023-02-02T06:32:34;102282.53;;;7.04;100.00
71772;BME280;59606;52.138;5.424;2023-02-02T06:35:01;102291.22;;;7.01;100.00
71772;BME280;59606;52.138;5.424;2023-02-02T06:37:27;102295.53;;;7.02;100.00
71772;BME280;59606;52.138;5.424;2023-02-02T06:39:56;102289.50;;;7.00;100.00
71772;BME280;59606;52.138;5.424;2023-02-02T06:42:22;102299.00;;;7.00;100.00
71772;BME280;59606;52.138;5.424;2023-02-02T06:44:48;102293.88;;;6.98;100.00
71772;BME280;59606;52.138;5.424;2023-02-02T06:47:15;102303.38;;;6.98;100.00
71772;BME280;59606;52.138;5.424;2023-02-02T06:49:41;102303.38;;;6.98;100.00
71772;BME280;59606;52.138;5.424;2023-02-02T06:52:08;102308.53;;;6.99;100.00
71772;BME280;59606;52.138;5.424;2023-02-02T06:54:34;102315.47;;;6.97;100.00
71772;BME280;59606;52.138;5.424;2023-02-02T06:57:01;102318.03;;;6.97;100.00
71772;BME280;59606;52.138;5.424;2023-02-02T06:59:27;102317.19;;;6.98;100.00
71772;BME280;59606;52.138;5.424;2023-02-02T07:01:54;102319.78;;;6.98;100.00
71772;BME280;59606;52.138;5.424;2023-02-02T07:04:20;102311.16;;;6.98;100.00
71772;BME280;59606;52.138;5.424;2023-02-02T07:06:47;102317.19;;;6.98;100.00
71772;BME280;59606;52.138;5.424;2023-02-02T07:09:13;102314.59;;;6.97;100.00
71772;BME280;59606;52.138;5.424;2023-02-02T07:11:40;102307.69;;;6.97;100.00
71772;BME280;59606;52.138;5.424;2023-02-02T07:14:11;102296.47;;;6.97;100.00
71772;BME280;59606;52.138;5.424;2023-02-02T07:16:37;102305.97;;;6.96;100.00
71772;BME280;59606;52.138;5.424;2023-02-02T07:19:04;102308.59;;;6.95;100.00
71772;BME280;59606;52.138;5.424;2023-02-02T07:21:30;102314.59;;;6.97;100.00
71772;BME280;59606;52.138;5.424;2023-02-02T07:24:02;102305.97;;;6.96;100.00
71772;BME280;59606;52.138;5.424;2023-02-02T07:26:29;102317.19;;;6.97;100.00
71772;BME280;59606;52.138;5.424;2023-02-02T07:28:56;102318.09;;;6.96;100.00
71772;BME280;59606;52.138;5.424;2023-02-02T07:31:24;102325.84;;;6.96;100.00
71772;BME280;59606;52.138;5.424;2023-02-02T07:33:52;102327.59;;;6.95;100.00
71772;BME280;59606;52.138;5.424;2023-02-02T07:36:21;102335.38;;;6.95;100.00
71772;BME280;59606;52.138;5.424;2023-02-02T07:38:50;102322.41;;;6.95;100.00
71772;BME280;59606;52.138;5.424;2023-02-02T07:41:19;102330.19;;;6.95;100.00
71772;BME280;59606;52.138;5.424;2023-02-02T07:43:46;102339.66;;;6.96;100.00
71772;BME280;59606;52.138;5.424;2023-02-02T07:46:14;102340.50;;;6.97;100.00
71772;BME280;59606;52.138;5.424;2023-02-02T07:48:41;102342.25;;;6.98;100.00
71772;BME280;59606;52.138;5.424;2023-02-02T07:51:12;102344.84;;;6.98;100.00
71772;BME280;59606;52.138;5.424;2023-02-02T07:53:42;102347.38;;;6.99;100.00
71772;BME280;59606;52.138;5.424;2023-02-02T07:56:12;102346.50;;;7.00;100.00
71772;BME280;59606;52.138;5.424;2023-02-02T07:58:39;102355.13;;;7.02;100.00
71772;BME280;59606;52.138;5.424;2023-02-02T08:01:08;102357.72;;;7.02;100.00
71772;BME280;59606;52.138;5.424;2023-02-02T08:03:35;102362.00;;;7.05;100.00
71772;BME280;59606;52.138;5.424;2023-02-02T08:06:09;102351.63;;;7.05;100.00
71772;BME280;59606;52.138;5.424;2023-02-02T08:08:36;102365.41;;;7.07;100.00
71772;BME280;59606;52.138;5.424;2023-02-02T08:11:03;102368.84;;;7.09;100.00
71772;BME280;59606;52.138;5.424;2023-02-02T08:13:29;102361.91;;;7.11;100.00
71772;BME280;59606;52.138;5.424;2023-02-02T08:15:57;102369.59;;;7.14;100.00
71772;BME280;59606;52.138;5.424;2023-02-02T08:18:23;102368.69;;;7.17;100.00
71772;BME280;59606;52.138;5.424;2023-02-02T08:20:51;102369.56;;;7.17;100.00
71772;BME280;59606;52.138;5.424;2023-02-02T08:23:18;102379.91;;;7.17;100.00
71772;BME280;59606;52.138;5.424;2023-02-02T08:25:49;102391.13;;;7.19;100.00
71772;BME280;59606;52.138;5.424;2023-02-02T08:28:16;102386.84;;;7.18;100.00
71772;BME280;59606;52.138;5.424;2023-02-02T08:30:43;102397.16;;;7.20;100.00
71772;BME280;59606;52.138;5.424;2023-02-02T08:33:10;102394.56;;;7.21;100.00
71772;BME280;59606;52.138;5.424;2023-02-02T08:35:41;102404.91;;;7.23;100.00
71772;BME280;59606;52.138;5.424;2023-02-02T08:38:08;102399.72;;;7.24;100.00
71772;BME280;59606;52.138;5.424;2023-02-02T08:40:34;102400.53;;;7.26;100.00
71772;BME280;59606;52.138;5.424;2023-02-02T08:43:01;102400.50;;;7.28;100.00
71772;BME280;59606;52.138;5.424;2023-02-02T08:45:30;102407.38;;;7.30;100.00
71772;BME280;59606;52.138;5.424;2023-02-02T08:48:17;102407.28;;;7.37;100.00
71772;BME280;59606;52.138;5.424;2023-02-02T08:50:53;102415.00;;;7.40;100.00
71772;BME280;59606;52.138;5.424;2023-02-02T08:53:21;102415.00;;;7.41;100.00
71772;BME280;59606;52.138;5.424;2023-02-02T08:55:56;102418.41;;;7.43;100.00
71772;BME280;59606;52.138;5.424;2023-02-02T08:58:23;102420.94;;;7.46;100.00
71772;BME280;59606;52.138;5.424;2023-02-02T09:00:49;102425.19;;;7.50;100.00
71772;BME280;59606;52.138;5.424;2023-02-02T09:03:16;102420.81;;;7.55;100.00
71772;BME280;59606;52.138;5.424;2023-02-02T09:05:42;102419.84;;;7.60;100.00
71772;BME280;59606;52.138;5.424;2023-02-02T09:08:09;102424.16;;;7.62;99.85
71772;BME280;59606;52.138;5.424;2023-02-02T09:10:36;102418.06;;;7.65;99.70
71772;BME280;59606;52.138;5.424;2023-02-02T09:13:03;102435.28;;;7.69;99.29
71772;BME280;59606;52.138;5.424;2023-02-02T09:15:29;102430.88;;;7.72;99.12
71772;BME280;59606;52.138;5.424;2023-02-02T09:17:56;102443.75;;;7.77;99.47
71772;BME280;59606;52.138;5.424;2023-02-02T09:20:22;102443.72;;;7.80;98.59
71772;BME280;59606;52.138;5.424;2023-02-02T09:22:49;102445.38;;;7.84;98.67
71772;BME280;59606;52.138;5.424;2023-02-02T09:25:15;102447.06;;;7.88;99.18
71772;BME280;59606;52.138;5.424;2023-02-02T09:27:42;102453.94;;;7.89;98.82
71772;BME280;59606;52.138;5.424;2023-02-02T09:30:09;102462.53;;;7.93;97.75
71772;BME280;59606;52.138;5.424;2023-02-02T09:32:35;102451.25;;;7.95;97.66
71772;BME280;59606;52.138;5.424;2023-02-02T09:35:02;102465.06;;;7.96;98.34
71772;BME280;59606;52.138;5.424;2023-02-02T09:37:32;102462.44;;;7.97;97.83
71772;BME280;59606;52.138;5.424;2023-02-02T09:39:58;102459.84;;;7.97;98.17
71772;BME280;59606;52.138;5.424;2023-02-02T09:50:39;102465.03;;;7.97;97.66
71772;BME280;59606;52.138;5.424;2023-02-02T09:55:58;102477.09;;;8.00;98.50
71772;BME280;59606;52.138;5.424;2023-02-02T09:58:49;102482.34;;;7.97;98.25
71772;BME280;59606;52.138;5.424;2023-02-02T10:01:33;102484.09;;;7.96;97.99
71772;BME280;59606;52.138;5.424;2023-02-02T10:04:07;102480.59;;;7.97;98.08
71772;BME280;59606;52.138;5.424;2023-02-02T10:06:42;102484.03;;;7.99;98.24
71772;BME280;59606;52.138;5.424;2023-02-02T10:11:53;102496.09;;;8.02;97.41
71772;BME280;59606;52.138;5.424;2023-02-02T10:14:26;102492.56;;;8.04;97.66
71772;BME280;59606;52.138;5.424;2023-02-02T10:16:55;102497.78;;;8.04;97.37
71772;BME280;59606;52.138;5.424;2023-02-02T10:19:25;102497.78;;;8.04;97.56
71772;BME280;59606;52.138;5.424;2023-02-02T10:22:01;102502.16;;;8.01;96.60
71772;BME280;59606;52.138;5.424;2023-02-02T10:24:31;102512.59;;;7.99;97.04
71772;BME280;59606;52.138;5.424;2023-02-02T10:27:07;102503.06;;;8.00;97.16
71772;BME280;59606;52.138;5.424;2023-02-02T10:29:58;102513.34;;;8.06;96.92
71772;BME280;59606;52.138;5.424;2023-02-02T10:32:33;102502.91;;;8.09;97.06
71772;BME280;59606;52.138;5.424;2023-02-02T10:38:00;102502.75;;;8.17;96.89
71772;BME280;59606;52.138;5.424;2023-02-02T10:40:51;102508.78;;;8.19;97.07
71772;BME280;59606;52.138;5.424;2023-02-02T10:46:22;102514.78;;;8.21;97.22
71772;BME280;59606;52.138;5.424;2023-02-02T10:48:59;102517.31;;;8.25;97.78
71772;BME280;59606;52.138;5.424;2023-02-02T10:51:28;102518.97;;;8.28;98.06
71772;BME280;59606;52.138;5.424;2023-02-02T10:53:57;102525.91;;;8.29;97.79
71772;BME280;59606;52.138;5.424;2023-02-02T10:56:34;102518.13;;;8.29;98.20
71772;BME280;59606;52.138;5.424;2023-02-02T10:59:18;102519.88;;;8.27;96.90
71772;BME280;59606;52.138;5.424;2023-02-02T11:01:46;102518.97;;;8.28;97.66
71772;BME280;59606;52.138;5.424;2023-02-02T11:04:13;102520.72;;;8.29;97.49
71772;BME280;59606;52.138;5.424;2023-02-02T11:06:59;102520.78;;;8.26;96.97
71772;BME280;59606;52.138;5.424;2023-02-02T11:09:30;102523.38;;;8.26;97.17
71772;BME280;59606;52.138;5.424;2023-02-02T11:12:24;102519.88;;;8.29;97.24
71772;BME280;59606;52.138;5.424;2023-02-02T11:14:59;102507.75;;;8.27;96.93
71772;BME280;59606;52.138;5.424;2023-02-02T11:17:27;102513.84;;;8.26;96.99
71772;BME280;59606;52.138;5.424;2023-02-02T11:19:54;102512.06;;;8.29;96.66
71772;BME280;59606;52.138;5.424;2023-02-02T11:22:38;102514.63;;;8.30;96.85
71772;BME280;59606;52.138;5.424;2023-02-02T11:25:08;102508.53;;;8.31;95.88
71772;BME280;59606;52.138;5.424;2023-02-02T11:27:47;102518.81;;;8.37;96.21
71772;BME280;59606;52.138;5.424;2023-02-02T11:30:31;102517.03;;;8.42;96.72
71772;BME280;59606;52.138;5.424;2023-02-02T11:32:59;102516.09;;;8.46;96.54
71772;BME280;59606;52.138;5.424;2023-02-02T11:35:26;102515.09;;;8.54;96.03
71772;BME280;59606;52.138;5.424;2023-02-02T11:38:09;102517.75;;;8.50;94.99
71772;BME280;59606;52.138;5.424;2023-02-02T11:40:41;102520.38;;;8.49;95.11
71772;BME280;59606;52.138;5.424;2023-02-02T11:43:18;102516.94;;;8.47;95.09
71772;BME280;59606;52.138;5.424;2023-02-02T11:45:50;102524.78;;;8.44;94.48
71772;BME280;59606;52.138;5.424;2023-02-02T11:48:21;102519.59;;;8.45;94.78
71772;BME280;59606;52.138;5.424;2023-02-02T11:50:53;102520.41;;;8.47;94.77
71772;BME280;59606;52.138;5.424;2023-02-02T11:53:23;102518.63;;;8.49;94.30
71772;BME280;59606;52.138;5.424;2023-02-02T11:55:50;102516.06;;;8.48;93.61
71772;BME280;59606;52.138;5.424;2023-02-02T11:58:25;102512.59;;;8.47;93.84
71772;BME280;59606;52.138;5.424;2023-02-02T12:00:58;102510.94;;;8.43;93.11
71772;BME280;59606;52.138;5.424;2023-02-02T12:03:28;102510.91;;;8.45;93.79
71772;BME280;59606;52.138;5.424;2023-02-02T12:05:55;102504.88;;;8.44;93.61
71772;BME280;59606;52.138;5.424;2023-02-02T12:08:22;102507.47;;;8.44;93.06
71772;BME280;59606;52.138;5.424;2023-02-02T12:10:58;102514.41;;;8.45;93.11
71772;BME280;59606;52.138;5.424;2023-02-02T12:13:52;102509.19;;;8.45;93.98
71772;BME280;59606;52.138;5.424;2023-02-02T12:16:38;102507.47;;;8.44;94.19
71772;BME280;59606;52.138;5.424;2023-02-02T12:24:30;102512.75;;;8.40;93.61
71772;BME280;59606;52.138;5.424;2023-02-02T12:27:05;102507.56;;;8.38;94.22
71772;BME280;59606;52.138;5.424;2023-02-02T12:29:56;102512.78;;;8.38;94.10
71772;BME280;59606;52.138;5.424;2023-02-02T12:35:37;102500.69;;;8.36;93.48
71772;BME280;59606;52.138;5.424;2023-02-02T12:41:26;102500.75;;;8.33;93.81
71772;BME280;59606;52.138;5.424;2023-02-02T12:44:05;102499.03;;;8.32;94.17
71772;BME280;59606;52.138;5.424;2023-02-02T12:49:30;102496.41;;;8.33;93.96
71772;BME280;59606;52.138;5.424;2023-02-02T12:57:48;102495.56;;;8.33;94.09
71772;BME280;59606;52.138;5.424;2023-02-02T13:03:22;102491.38;;;8.25;95.15
71772;BME280;59606;52.138;5.424;2023-02-02T13:06:01;102490.50;;;8.25;95.38
71772;BME280;59606;52.138;5.424;2023-02-02T13:09:12;102485.38;;;8.22;95.93
71772;BME280;59606;52.138;5.424;2023-02-02T13:11:45;102485.38;;;8.20;96.38
71772;BME280;59606;52.138;5.424;2023-02-02T13:14:28;102490.63;;;8.17;96.77
71772;BME280;59606;52.138;5.424;2023-02-02T13:17:01;102493.31;;;8.13;97.18
71772;BME280;59606;52.138;5.424;2023-02-02T13:19:34;102501.13;;;8.11;97.38
71772;BME280;59606;52.138;5.424;2023-02-02T13:22:04;102496.81;;;8.10;98.58
71772;BME280;59606;52.138;5.424;2023-02-02T13:24:36;102500.25;;;8.11;98.65
71772;BME280;59606;52.138;5.424;2023-02-02T13:27:05;102495.94;;;8.11;99.13
71772;BME280;59606;52.138;5.424;2023-02-02T13:29:53;102495.06;;;8.12;98.98
71772;BME280;59606;52.138;5.424;2023-02-02T13:34:58;102505.50;;;8.08;100.00
71772;BME280;59606;52.138;5.424;2023-02-02T13:40:19;102507.34;;;8.02;100.00
71772;BME280;59606;52.138;5.424;2023-02-02T13:48:24;102510.00;;;7.98;100.00
71772;BME280;59606;52.138;5.424;2023-02-02T13:59:34;102509.13;;;7.99;100.00
71772;BME280;59606;52.138;5.424;2023-02-02T14:01:58;102512.53;;;8.01;100.00
71772;BME280;59606;52.138;5.424;2023-02-02T14:04:27;102510.84;;;8.00;100.00
71772;BME280;59606;52.138;5.424;2023-02-02T14:07:02;102504.75;;;8.01;100.00
71772;BME280;59606;52.138;5.424;2023-02-02T14:09:31;102509.03;;;8.03;100.00
71772;BME280;59606;52.138;5.424;2023-02-02T14:12:01;102501.19;;;8.08;100.00
71772;BME280;59606;52.138;5.424;2023-02-02T14:14:28;102514.13;;;8.10;100.00
71772;BME280;59606;52.138;5.424;2023-02-02T14:24:45;102510.84;;;8.01;100.00
71772;BME280;59606;52.138;5.424;2023-02-02T14:37:35;102526.50;;;7.95;100.00
71772;BME280;59606;52.138;5.424;2023-02-02T14:45:35;102519.63;;;7.91;100.00